Time;durP1;ratioP1;P1;durP2;ratioP2;P2;SDS_P1;SDS_P2;PMS_P1;PMS_P2;Temp;Humidity;BMP_temperature;BMP_pressure;BME280_temperature;BME280_humidity;BME280_pressure;Samples;Min_cycle;Max_cycle;Signal;HPM_P1;HPM_P2
2020/12/18 00:00:44;;;;;;;4.32;1.77;;;;;;;20.46;43.71;100618.13;5012367;28;20040;-73
2020/12/18 00:03:09;;;;;;;5.22;2.00;;;;;;;20.45;43.54;100611.13;5011451;28;20037;-73
2020/12/18 00:05:34;;;;;;;5.40;2.05;;;;;;;20.44;43.67;100606.75;5012565;28;20037;-80
2020/12/18 00:08:00;;;;;;;3.63;1.98;;;;;;;20.46;43.70;100608.47;5011148;28;20109;-75
2020/12/18 00:10:29;;;;;;;4.50;1.73;;;;;;;20.45;43.66;100616.41;5011285;28;20064;-76
2020/12/18 00:12:54;;;;;;;5.68;2.00;;;;;;;20.44;43.81;100604.13;5012348;28;20570;-74
2020/12/18 00:15:26;;;;;;;4.50;2.42;;;;;;;20.42;43.46;100604.13;5010900;28;20129;-73
2020/12/18 00:17:52;;;;;;;5.10;2.28;;;;;;;20.45;43.47;100601.47;5011913;28;20038;-73
2020/12/18 00:20:17;;;;;;;4.78;1.70;;;;;;;20.43;43.61;100608.50;5012007;28;20046;-74
2020/12/18 00:22:43;;;;;;;4.75;2.10;;;;;;;20.42;43.72;100604.13;5011170;28;20033;-74
2020/12/18 00:25:09;;;;;;;2.92;1.48;;;;;;;20.42;43.74;100600.66;5012382;28;20407;-73
2020/12/18 00:27:35;;;;;;;4.07;2.13;;;;;;;20.41;43.65;100598.91;5027390;28;20037;-74
2020/12/18 00:30:00;;;;;;;4.25;1.90;;;;;;;20.43;43.82;100594.50;5031304;28;20908;-75
2020/12/18 00:32:26;;;;;;;3.38;1.75;;;;;;;20.40;43.86;100598.03;5031829;28;20041;-74
2020/12/18 00:34:52;;;;;;;4.55;1.90;;;;;;;20.41;43.69;100593.66;5031789;28;20048;-73
2020/12/18 00:37:20;;;;;;;4.07;1.73;;;;;;;20.41;43.63;100601.53;5032027;28;20044;-74
2020/12/18 00:39:45;;;;;;;3.13;1.63;;;;;;;20.39;43.71;100602.44;5032019;28;20116;-74
2020/12/18 00:42:11;;;;;;;6.18;1.95;;;;;;;20.41;43.80;100601.53;5012985;28;20465;-73
2020/12/18 00:44:36;;;;;;;2.88;1.35;;;;;;;20.40;43.63;100598.03;5012280;28;20464;-72
2020/12/18 00:47:01;;;;;;;6.05;1.77;;;;;;;20.42;43.79;100600.66;5011623;28;20037;-73
2020/12/18 00:49:26;;;;;;;5.07;1.70;;;;;;;20.42;43.64;100593.59;5005670;28;20027;-73
2020/12/18 00:51:53;;;;;;;4.82;1.40;;;;;;;20.43;43.48;100597.13;4990928;28;20031;-73
2020/12/18 00:54:19;;;;;;;2.70;1.50;;;;;;;20.40;43.60;100598.03;4990791;28;20126;-74
2020/12/18 00:56:44;;;;;;;4.88;1.88;;;;;;;20.41;43.86;100599.75;4992326;28;20117;-73
2020/12/18 00:59:10;;;;;;;3.45;2.08;;;;;;;20.39;43.61;100599.78;4991687;28;20391;-73
2020/12/18 01:01:35;;;;;;;2.60;1.35;;;;;;;20.40;43.86;100595.38;4991722;28;20034;-73
2020/12/18 01:04:01;;;;;;;3.03;1.60;;;;;;;20.39;43.77;100599.78;4990802;28;20042;-72
2020/12/18 01:06:26;;;;;;;4.55;2.03;;;;;;;20.40;43.63;100590.13;4990804;28;20089;-73
2020/12/18 01:08:52;;;;;;;2.28;1.17;;;;;;;20.39;43.77;100588.41;4992192;28;20049;-72
2020/12/18 01:11:17;;;;;;;5.53;2.35;;;;;;;20.41;43.78;100588.38;4992166;28;20114;-74
2020/12/18 01:13:42;;;;;;;4.22;1.60;;;;;;;20.38;43.61;100587.53;4990299;28;20475;-74
2020/12/18 01:16:12;;;;;;;4.13;1.80;;;;;;;20.38;43.70;100589.31;4994435;28;20038;-74
2020/12/18 01:18:40;;;;;;;4.70;1.75;;;;;;;20.38;43.77;100587.53;5011773;28;20398;-74
2020/12/18 01:21:06;;;;;;;2.05;1.05;;;;;;;20.39;43.85;100596.31;5011562;28;20136;-73
2020/12/18 01:23:31;;;;;;;3.50;1.70;;;;;;;20.37;43.64;100598.94;5026795;28;20125;-73
2020/12/18 01:25:57;;;;;;;4.13;1.75;;;;;;;20.40;43.73;100595.38;5013332;28;20046;-75
2020/12/18 01:28:22;;;;;;;3.75;1.55;;;;;;;20.39;43.69;100588.41;5031132;28;20452;-72
2020/12/18 01:30:48;;;;;;;4.82;1.50;;;;;;;20.37;43.73;100598.09;5030016;28;20032;-74
2020/12/18 01:33:13;;;;;;;3.10;1.50;;;;;;;20.37;43.70;100591.06;5031297;28;20426;-73
2020/12/18 01:35:39;;;;;;;4.15;1.45;;;;;;;20.38;43.85;100598.06;5031194;28;20029;-73
2020/12/18 01:38:04;;;;;;;2.90;1.52;;;;;;;20.37;43.65;100595.47;5031112;28;20498;-73
2020/12/18 01:40:30;;;;;;;5.15;1.48;;;;;;;20.36;43.87;100594.56;5026251;28;20398;-73
2020/12/18 01:42:55;;;;;;;3.83;1.45;;;;;;;20.37;43.59;100591.06;5011425;28;20052;-74
2020/12/18 01:45:22;;;;;;;2.50;1.30;;;;;;;20.35;43.65;100592.84;5011505;28;20034;-74
2020/12/18 01:47:48;;;;;;;5.65;1.20;;;;;;;20.35;43.71;100595.47;5009854;28;20059;-74
2020/12/18 01:50:14;;;;;;;4.88;1.63;;;;;;;20.36;43.75;100591.94;5006544;28;20038;-74
2020/12/18 01:52:41;;;;;;;4.32;1.85;;;;;;;20.35;43.80;100594.63;5010761;28;20120;-73
2020/12/18 01:55:09;;;;;;;3.13;1.10;;;;;;;20.37;43.77;100587.56;5011348;28;20404;-73
2020/12/18 01:57:36;;;;;;;2.85;1.40;;;;;;;20.36;43.65;100594.56;5011120;28;20041;-73
2020/12/18 02:00:05;;;;;;;2.58;1.20;;;;;;;20.36;43.51;100599.84;5011105;28;20037;-74
2020/12/18 02:02:31;;;;;;;5.63;1.65;;;;;;;20.36;43.79;100591.09;5011159;28;20048;-73
2020/12/18 02:04:56;;;;;;;3.33;1.30;;;;;;;20.37;43.68;100595.47;5011070;28;20038;-73
2020/12/18 02:07:25;;;;;;;3.00;1.40;;;;;;;20.36;43.67;100585.81;5011428;28;20049;-73
2020/12/18 02:09:51;;;;;;;2.00;0.93;;;;;;;20.34;43.77;100583.19;5009846;28;20044;-74
2020/12/18 02:12:18;;;;;;;3.22;1.58;;;;;;;20.34;43.76;100575.31;5012019;28;20449;-74
2020/12/18 02:14:47;;;;;;;4.20;1.52;;;;;;;20.33;43.66;100577.97;5013360;28;20042;-73
2020/12/18 02:17:13;;;;;;;3.45;1.50;;;;;;;20.34;43.92;100577.94;5014199;28;20418;-74
2020/12/18 02:19:41;;;;;;;12.05;1.80;;;;;;;20.32;43.76;100577.09;5029788;28;20486;-73
2020/12/18 02:22:18;;;;;;;4.88;1.73;;;;;;;20.32;43.75;100577.09;5013332;28;20049;-73
2020/12/18 02:25:08;;;;;;;4.15;1.58;;;;;;;20.30;43.56;100578.91;5014538;28;20030;-74
2020/12/18 02:27:40;;;;;;;3.35;1.35;;;;;;;20.30;43.78;100570.13;5029389;28;20417;-74
2020/12/18 02:30:11;;;;;;;3.13;1.25;;;;;;;20.31;43.57;100577.13;5033937;28;20112;-73
2020/12/18 02:32:36;;;;;;;3.75;1.40;;;;;;;20.31;43.65;100575.38;5033980;28;20041;-74
2020/12/18 02:35:06;;;;;;;2.88;1.30;;;;;;;20.30;43.68;100559.59;5034173;28;20120;-74
2020/12/18 02:37:33;;;;;;;2.85;1.38;;;;;;;20.29;43.83;100568.38;5034139;28;20049;-73
2020/12/18 02:39:59;;;;;;;5.50;1.80;;;;;;;20.30;43.56;100560.47;5031623;28;20034;-75
2020/12/18 02:42:25;;;;;;;3.08;1.33;;;;;;;20.31;43.70;100558.69;5014140;28;20497;-74
2020/12/18 02:44:50;;;;;;;5.25;1.83;;;;;;;20.31;43.68;100553.44;5013059;28;20046;-72
2020/12/18 02:47:16;;;;;;;3.83;1.30;;;;;;;20.30;43.88;100555.22;5012548;28;20068;-73
2020/12/18 02:49:41;;;;;;;3.25;1.23;;;;;;;20.30;43.68;100547.31;4996343;28;20034;-75
2020/12/18 02:52:07;;;;;;;4.32;1.70;;;;;;;20.31;43.56;100556.97;4999038;28;20403;-73
2020/12/18 02:54:33;;;;;;;3.55;1.30;;;;;;;20.29;43.69;100545.59;4994127;28;20112;-79
2020/12/18 02:56:58;;;;;;;3.85;1.58;;;;;;;20.28;43.65;100543.84;4994359;28;20066;-72
2020/12/18 02:59:24;;;;;;;3.10;1.23;;;;;;;20.29;43.58;100547.31;5009568;28;20121;-72
2020/12/18 03:01:49;;;;;;;4.50;1.77;;;;;;;20.29;43.70;100544.69;4976666;28;20124;-75
2020/12/18 03:04:14;;;;;;;5.93;1.45;;;;;;;20.28;43.42;100543.84;4993930;28;20098;-74
2020/12/18 03:06:40;;;;;;;2.78;1.10;;;;;;;20.28;43.54;100541.22;4994254;28;20038;-72
2020/12/18 03:09:05;;;;;;;2.97;1.23;;;;;;;20.30;43.58;100534.16;4993735;28;20045;-74
2020/12/18 03:11:31;;;;;;;3.58;1.38;;;;;;;20.29;43.72;100527.16;4992886;28;20116;-74
2020/12/18 03:13:56;;;;;;;5.68;1.42;;;;;;;20.30;43.53;100533.28;4992478;28;20039;-74
2020/12/18 03:16:21;;;;;;;2.28;1.10;;;;;;;20.29;43.65;100529.78;4998236;28;20502;-73
2020/12/18 03:18:47;;;;;;;4.25;1.30;;;;;;;20.29;43.63;100531.53;5013444;28;20031;-75
2020/12/18 03:21:12;;;;;;;4.40;1.20;;;;;;;20.30;43.39;100539.44;5028817;28;20036;-73
2020/12/18 03:23:38;;;;;;;4.00;1.50;;;;;;;20.27;43.59;100531.56;5027726;28;20058;-73
2020/12/18 03:26:03;;;;;;;2.60;1.23;;;;;;;20.29;43.45;100523.63;5015787;28;20029;-73
2020/12/18 03:28:28;;;;;;;2.83;1.15;;;;;;;20.27;43.44;100534.22;5033690;28;20040;-73
2020/12/18 03:30:55;;;;;;;2.55;1.30;;;;;;;20.26;43.61;100531.56;5033972;28;20071;-75
2020/12/18 03:33:20;;;;;;;4.32;1.20;;;;;;;20.27;43.46;100533.31;5033872;28;20038;-74
2020/12/18 03:35:45;;;;;;;3.08;1.00;;;;;;;20.24;43.45;100542.16;5033408;28;20048;-73
2020/12/18 03:38:11;;;;;;;2.83;1.10;;;;;;;20.26;43.39;100535.09;5033243;28;20030;-74
2020/12/18 03:40:36;;;;;;;4.05;1.20;;;;;;;20.24;43.48;100539.50;5033713;28;20486;-76
2020/12/18 03:43:02;;;;;;;2.70;1.42;;;;;;;20.24;43.50;100539.50;5033393;28;20034;-79
2020/12/18 03:45:27;;;;;;;2.65;1.42;;;;;;;20.26;43.68;100531.56;5033352;28;20037;-78
2020/12/18 03:47:53;;;;;;;4.38;1.42;;;;;;;20.24;43.59;100531.63;5031951;28;20025;-72
2020/12/18 03:50:19;;;;;;;3.00;1.10;;;;;;;20.24;43.68;100529.00;5003040;28;20042;-73
2020/12/18 03:52:44;;;;;;;4.72;1.77;;;;;;;20.23;43.50;100530.75;4993603;28;20038;-73
2020/12/18 03:55:09;;;;;;;2.70;1.38;;;;;;;20.24;43.65;100523.72;4993058;28;20051;-74
2020/12/18 03:57:35;;;;;;;4.95;1.30;;;;;;;20.24;43.43;100521.09;4993965;28;20054;-73
2020/12/18 04:00:00;;;;;;;3.92;1.40;;;;;;;20.26;43.50;100526.31;4994046;28;20092;-74
2020/12/18 04:02:26;;;;;;;5.20;1.35;;;;;;;20.24;43.67;100531.63;4993758;28;20124;-73
2020/12/18 04:04:51;;;;;;;2.75;1.63;;;;;;;20.23;43.66;100524.63;4992666;28;20038;-72
2020/12/18 04:07:17;;;;;;;4.18;1.60;;;;;;;20.24;43.63;100524.56;4993283;28;20030;-75
2020/12/18 04:09:43;;;;;;;4.22;1.35;;;;;;;20.24;43.59;100529.84;4992245;28;20041;-73
2020/12/18 04:12:10;;;;;;;5.13;1.42;;;;;;;20.25;43.40;100522.84;4993676;28;20666;-73
2020/12/18 04:14:35;;;;;;;3.20;1.20;;;;;;;20.26;43.55;100528.94;4993896;28;20096;-73
2020/12/18 04:17:05;;;;;;;3.03;1.52;;;;;;;20.24;43.40;100529.00;5013751;28;20045;-74
2020/12/18 04:19:30;;;;;;;4.60;1.50;;;;;;;20.25;43.53;100522.84;5032819;28;20037;-74
2020/12/18 04:21:56;;;;;;;4.55;1.48;;;;;;;20.26;43.48;100521.94;5032688;28;20048;-74
2020/12/18 04:24:22;;;;;;;6.65;1.52;;;;;;;20.23;43.58;100522.88;5032912;28;20057;-74
2020/12/18 04:26:48;;;;;;;3.67;1.50;;;;;;;20.23;43.53;100522.88;5024367;28;20394;-74
2020/12/18 04:29:14;;;;;;;1.63;1.00;;;;;;;20.22;43.43;100526.41;5013193;28;20034;-74
2020/12/18 04:31:39;;;;;;;4.35;1.65;;;;;;;20.22;43.42;100525.50;5013106;28;20085;-75
2020/12/18 04:34:05;;;;;;;4.57;1.42;;;;;;;20.22;43.58;100536.03;5012587;28;20038;-74
2020/12/18 04:36:31;;;;;;;3.25;1.17;;;;;;;20.23;43.58;100529.88;5013081;28;20125;-75
2020/12/18 04:38:56;;;;;;;2.58;1.27;;;;;;;20.22;43.50;100531.66;5012899;28;20050;-74
2020/12/18 04:41:21;;;;;;;5.30;1.20;;;;;;;20.23;43.45;100528.13;5001017;28;20081;-73
2020/12/18 04:43:47;;;;;;;2.20;1.00;;;;;;;20.24;43.42;100526.34;4991971;28;20044;-78
2020/12/18 04:46:17;;;;;;;3.20;1.20;;;;;;;20.22;43.50;100523.75;4992759;28;20064;-74
2020/12/18 04:48:43;;;;;;;3.15;1.42;;;;;;;20.23;43.35;100527.25;4993120;28;20066;-74
2020/12/18 04:51:18;;;;;;;3.22;1.38;;;;;;;20.19;43.50;100521.16;5012277;28;20033;-74
2020/12/18 04:53:48;;;;;;;3.42;1.60;;;;;;;20.19;43.89;100523.81;5011729;28;20080;-73
2020/12/18 04:56:19;;;;;;;2.63;1.25;;;;;;;20.20;43.69;100522.03;5013293;28;20034;-74
2020/12/18 04:58:47;;;;;;;2.53;1.45;;;;;;;20.20;43.48;100525.53;5013627;28;20030;-74
2020/12/18 05:01:17;;;;;;;4.10;1.30;;;;;;;20.18;43.44;100531.69;5013215;28;20402;-74
2020/12/18 05:03:44;;;;;;;3.10;1.52;;;;;;;20.18;43.25;100526.44;5013130;28;20049;-72
2020/12/18 05:06:09;;;;;;;3.35;1.30;;;;;;;20.18;43.37;100523.81;5012610;28;20040;-73
2020/12/18 05:08:35;;;;;;;1.58;1.10;;;;;;;20.18;43.43;100529.06;5012976;28;20034;-74
2020/12/18 05:11:14;;;;;;;3.08;1.35;;;;;;;20.17;43.50;100533.47;5012985;28;20044;-75
2020/12/18 05:13:39;;;;;;;6.85;1.58;;;;;;;20.19;43.59;100533.44;5012011;28;20057;-74
2020/12/18 05:16:05;;;;;;;4.07;1.60;;;;;;;20.18;43.31;100531.69;5011675;28;20033;-74
2020/12/18 05:18:30;;;;;;;3.28;1.33;;;;;;;20.20;43.28;100533.44;5011558;28;20033;-74
2020/12/18 05:20:56;;;;;;;2.88;1.15;;;;;;;20.20;43.49;100528.19;5010025;28;20074;-73
2020/12/18 05:23:21;;;;;;;2.83;1.10;;;;;;;20.20;43.26;100532.56;5026875;28;20042;-74
2020/12/18 05:25:49;;;;;;;4.35;1.20;;;;;;;20.18;43.41;100531.69;5012013;28;20034;-73
2020/12/18 05:28:18;;;;;;;2.38;1.20;;;;;;;20.18;43.39;100540.47;5031331;28;20049;-73
2020/12/18 05:30:45;;;;;;;3.20;1.38;;;;;;;20.21;43.48;100531.66;5031144;28;20029;-74
2020/12/18 05:33:10;;;;;;;2.42;1.17;;;;;;;20.20;43.43;100529.91;5031030;28;20509;-73
2020/12/18 05:35:37;;;;;;;2.47;1.05;;;;;;;20.19;43.32;100523.81;5031030;28;20037;-74
2020/12/18 05:38:02;;;;;;;2.65;1.20;;;;;;;20.19;43.51;100520.28;5031060;28;20033;-75
2020/12/18 05:40:29;;;;;;;2.30;0.82;;;;;;;20.20;43.47;100522.03;5026738;28;20092;-75
2020/12/18 05:42:54;;;;;;;3.85;1.02;;;;;;;20.19;43.31;100515.03;5010047;28;20113;-79
2020/12/18 05:45:20;;;;;;;5.20;1.48;;;;;;;20.20;43.34;100511.50;5011451;28;20069;-74
2020/12/18 05:47:56;;;;;;;4.78;1.20;;;;;;;20.17;43.08;100504.53;5014270;28;20069;-74
2020/12/18 05:50:27;;;;;;;4.88;1.75;;;;;;;20.18;43.45;100508.91;5013675;28;20034;-74
2020/12/18 05:52:57;;;;;;;2.38;1.05;;;;;;;20.20;43.00;100508.88;5015091;28;20121;-74
2020/12/18 05:55:23;;;;;;;5.28;1.60;;;;;;;20.20;43.43;100524.66;5014956;28;20038;-78
2020/12/18 05:57:49;;;;;;;2.60;1.10;;;;;;;20.19;43.29;100517.66;5013716;28;20038;-74
2020/12/18 06:00:14;;;;;;;4.28;1.58;;;;;;;20.18;43.29;100519.44;5014897;28;20466;-74
2020/12/18 06:02:43;;;;;;;5.03;1.42;;;;;;;20.17;43.21;100519.44;5014460;28;20077;-74
2020/12/18 06:05:09;;;;;;;3.30;1.50;;;;;;;20.16;43.21;100515.94;5013522;28;20487;-74
2020/12/18 06:07:39;;;;;;;3.80;1.42;;;;;;;20.16;43.42;100508.06;5014752;28;20041;-80
2020/12/18 06:10:05;;;;;;;3.45;1.40;;;;;;;20.16;43.21;100507.22;5013486;28;20112;-73
2020/12/18 06:12:30;;;;;;;3.65;1.40;;;;;;;20.17;43.13;100501.91;5014631;28;20446;-73
2020/12/18 06:14:56;;;;;;;2.22;1.00;;;;;;;20.17;43.32;100501.91;5014642;28;20046;-74
2020/12/18 06:17:27;;;;;;;5.97;1.40;;;;;;;20.16;43.34;100505.44;5013980;28;20042;-74
2020/12/18 06:19:57;;;;;;;2.85;1.20;;;;;;;20.16;43.33;100505.44;5014347;28;20042;-76
2020/12/18 06:22:22;;;;;;;3.95;1.58;;;;;;;20.17;43.12;100508.91;5014611;28;20461;-73
2020/12/18 06:24:48;;;;;;;3.95;1.33;;;;;;;20.16;43.38;100510.69;5029812;28;20091;-74
2020/12/18 06:27:18;;;;;;;3.75;1.17;;;;;;;20.16;43.25;100512.47;5026691;28;20038;-73
2020/12/18 06:29:45;;;;;;;3.08;1.15;;;;;;;20.18;43.36;100516.81;5034141;28;20033;-73
2020/12/18 06:32:44;;;;;;;4.18;1.50;;;;;;;20.13;43.21;100505.47;5033808;28;20095;-73
2020/12/18 06:35:24;;;;;;;3.47;1.35;;;;;;;20.13;43.36;100510.72;5032962;28;20399;-73
2020/12/18 06:37:50;;;;;;;5.53;1.10;;;;;;;20.16;43.18;100502.78;5034079;28;20083;-73
2020/12/18 06:40:29;;;;;;;3.05;1.40;;;;;;;20.14;43.27;100501.94;5030505;28;20105;-74
2020/12/18 06:42:56;;;;;;;3.22;1.60;;;;;;;20.18;43.33;100502.75;5014108;28;20037;-79
2020/12/18 06:45:22;;;;;;;3.90;1.35;;;;;;;20.15;43.25;100497.56;5012743;28;20581;-74
2020/12/18 06:47:47;;;;;;;12.88;2.03;;;;;;;20.16;43.32;100499.31;5012238;28;20026;-73
2020/12/18 06:50:16;;;;;;;4.72;1.80;;;;;;;20.18;43.10;100498.38;5000991;28;20124;-74
2020/12/18 06:52:57;;;;;;;6.80;1.58;;;;;;;20.17;43.34;100503.66;4993184;28;20048;-74
2020/12/18 06:55:29;;;;;;;7.28;1.83;;;;;;;20.15;43.32;100508.94;5009606;28;20463;-75
2020/12/18 06:58:07;;;;;;;22.63;2.30;;;;;;;20.14;43.32;100509.84;4991621;28;20058;-73
2020/12/18 07:00:41;;;;;;;11.65;2.17;;;;;;;20.14;43.41;100516.88;4993976;28;20507;-72
2020/12/18 07:03:09;;;;;;;11.32;1.88;;;;;;;20.15;43.48;100498.44;4994379;28;20661;-73
2020/12/18 07:05:42;;;;;;;11.40;2.70;;;;;;;20.17;43.20;100507.16;5009457;28;20039;-74
2020/12/18 07:08:11;;;;;;;12.35;2.38;;;;;;;20.19;43.26;100488.72;4993252;28;20037;-75
2020/12/18 07:10:38;;;;;;;15.27;2.15;;;;;;;20.19;43.30;100489.59;5011087;28;20118;-75
2020/12/18 07:13:06;;;;;;;9.68;2.33;;;;;;;20.21;43.24;100485.19;5005311;28;20104;-75
2020/12/18 07:15:46;;;;;;;8.77;2.08;;;;;;;20.22;43.36;100488.66;5008572;28;20092;-72
2020/12/18 07:18:15;;;;;;;9.55;2.13;;;;;;;20.24;43.29;100489.50;4992638;28;20094;-72
2020/12/18 07:20:48;;;;;;;11.10;2.25;;;;;;;20.26;43.09;100486.84;4993991;28;20061;-72
2020/12/18 07:23:14;;;;;;;6.60;2.45;;;;;;;20.29;43.23;100500.84;4992783;28;20084;-75
2020/12/18 07:25:39;;;;;;;13.60;2.05;;;;;;;20.30;43.42;100496.44;4993849;28;20507;-74
2020/12/18 07:28:05;;;;;;;26.67;3.45;;;;;;;20.31;43.15;100483.25;5032040;28;20112;-74
2020/12/18 07:30:36;;;;;;;16.35;2.88;;;;;;;20.32;43.32;100487.59;5032925;28;20030;-72
2020/12/18 07:33:02;;;;;;;18.73;3.22;;;;;;;20.32;43.30;100484.13;5032790;28;20041;-75
2020/12/18 07:35:27;;;;;;;15.07;3.00;;;;;;;20.34;43.09;100477.91;5011186;28;20045;-75
2020/12/18 07:37:53;;;;;;;15.98;3.00;;;;;;;20.34;43.38;100477.91;5000426;28;20029;-75
2020/12/18 07:40:18;;;;;;;13.40;2.65;;;;;;;20.36;43.27;100485.81;5005463;28;20069;-75
2020/12/18 07:42:44;;;;;;;16.17;2.55;;;;;;;20.35;43.27;100484.06;5002958;28;20034;-73
2020/12/18 07:45:10;;;;;;;134.98;95.38;;;;;;;20.41;43.04;100483.94;5001951;28;20046;-74
2020/12/18 07:47:39;;;;;;;481.98;348.60;;;;;;;20.40;43.11;100490.09;5005863;28;20034;-72
2020/12/18 07:50:06;;;;;;;372.08;261.15;;;;;;;20.42;43.01;100484.81;4997773;28;20132;-73
2020/12/18 07:52:33;;;;;;;269.17;190.57;;;;;;;20.41;43.02;100493.63;4996479;28;20530;-73
2020/12/18 07:54:59;;;;;;;249.40;167.00;;;;;;;20.39;43.02;100493.66;4990996;28;20525;-72
2020/12/18 07:57:25;;;;;;;236.10;162.90;;;;;;;20.37;43.03;100484.91;5007738;28;20030;-72
2020/12/18 07:59:50;;;;;;;210.52;146.60;;;;;;;20.37;43.14;100487.56;5008314;28;20116;-73
2020/12/18 08:02:24;;;;;;;199.38;135.05;;;;;;;20.37;43.03;100487.56;4992835;28;20206;-73
2020/12/18 08:04:59;;;;;;;190.00;126.18;;;;;;;20.35;43.13;100490.19;5000607;28;20037;-73
2020/12/18 08:07:25;;;;;;;175.63;118.97;;;;;;;20.37;43.16;100493.66;5012778;28;20110;-74
2020/12/18 08:10:02;;;;;;;174.55;118.25;;;;;;;20.38;42.98;100479.63;5011274;28;20512;-79
2020/12/18 08:12:29;;;;;;;160.70;108.93;;;;;;;20.42;43.07;100488.31;4995649;28;20038;-75
2020/12/18 08:15:07;;;;;;;161.57;105.93;;;;;;;20.45;42.89;100485.63;4992731;28;20030;-75
2020/12/18 08:17:34;;;;;;;153.15;105.85;;;;;;;20.49;42.95;100478.53;5006050;28;20131;-73
2020/12/18 08:20:01;;;;;;;145.57;99.80;;;;;;;20.55;43.04;100483.72;5011830;28;20037;-73
2020/12/18 08:22:32;;;;;;;143.35;96.57;;;;;;;20.59;42.74;100490.66;5027360;28;20037;-71
2020/12/18 08:24:59;;;;;;;138.23;92.25;;;;;;;20.62;43.01;100492.34;5011982;28;20026;-75
2020/12/18 08:27:29;;;;;;;128.18;87.38;;;;;;;20.61;42.71;100494.13;5025588;28;20112;-73
2020/12/18 08:29:55;;;;;;;120.82;85.20;;;;;;;20.64;42.68;100487.94;5017498;28;20045;-75
2020/12/18 08:32:25;;;;;;;123.05;83.40;;;;;;;20.70;42.75;100490.47;5010264;28;20038;-74
2020/12/18 08:34:58;;;;;;;113.07;80.57;;;;;;;20.82;42.54;100492.00;5011737;28;20498;-74
2020/12/18 08:37:24;;;;;;;104.75;72.00;;;;;;;20.99;42.14;100492.53;5012075;28;20034;-75
2020/12/18 08:39:49;;;;;;;105.38;72.72;;;;;;;21.03;42.19;100498.59;5012090;28;20030;-73
2020/12/18 08:42:15;;;;;;;101.88;68.88;;;;;;;20.99;42.18;100497.81;4992352;28;20030;-73
2020/12/18 08:44:42;;;;;;;105.05;64.80;;;;;;;20.91;42.25;100502.38;4992320;28;20073;-72
2020/12/18 08:47:23;;;;;;;88.10;60.35;;;;;;;20.88;42.50;100504.19;4991736;28;20499;-71
2020/12/18 08:49:50;;;;;;;94.95;60.92;;;;;;;20.98;42.32;100514.50;4998396;28;20109;-75
2020/12/18 08:52:22;;;;;;;88.43;57.33;;;;;;;21.20;41.93;100508.81;4992189;28;20109;-73
2020/12/18 08:54:47;;;;;;;87.40;55.25;;;;;;;21.27;41.62;100506.94;4991009;28;20499;-76
2020/12/18 08:57:26;;;;;;;82.38;51.30;;;;;;;21.16;41.95;100507.16;5007035;28;20048;-72
2020/12/18 09:00:12;;;;;;;81.03;49.67;;;;;;;22.07;40.71;100514.81;4990954;28;20058;-75
2020/12/18 09:02:40;;;;;;;73.07;48.35;;;;;;;22.95;38.82;100517.84;4991908;28;20030;-76
2020/12/18 09:05:18;;;;;;;70.35;44.35;;;;;;;23.75;38.15;100521.72;5007095;28;20030;-80
2020/12/18 09:07:54;;;;;;;75.32;45.67;;;;;;;24.76;36.94;100515.78;4989577;28;20045;-74
2020/12/18 09:10:39;;;;;;;64.70;41.25;;;;;;;24.72;36.70;100525.66;4991654;28;20038;-76
2020/12/18 09:13:20;;;;;;;68.10;40.20;;;;;;;24.16;37.55;100526.63;4991249;28;20082;-73
2020/12/18 09:16:11;;;;;;;57.80;37.75;;;;;;;24.70;36.28;100537.19;4991477;28;20110;-79
2020/12/18 09:18:41;;;;;;;54.92;36.15;;;;;;;25.19;35.81;100527.47;4982778;28;20526;-72
2020/12/18 09:21:17;;;;;;;54.33;35.05;;;;;;;23.86;38.23;100530.19;4992780;28;20046;-76
2020/12/18 09:23:44;;;;;;;58.65;33.75;;;;;;;23.28;38.86;100522.22;4995999;28;20049;-76
2020/12/18 09:26:09;;;;;;;51.58;33.17;;;;;;;22.96;39.49;100526.66;5002516;28;20025;-72
2020/12/18 09:28:41;;;;;;;50.00;32.50;;;;;;;22.79;39.91;100532.41;5035234;28;20029;-73
2020/12/18 09:31:10;;;;;;;49.20;30.50;;;;;;;22.71;40.13;100529.97;5035150;28;20033;-72
2020/12/18 09:33:37;;;;;;;50.47;30.13;;;;;;;22.62;40.58;100531.06;5034991;28;20033;-72
2020/12/18 09:36:15;;;;;;;40.85;25.52;;;;;;;22.59;40.78;100533.78;5034916;28;20030;-75
2020/12/18 09:38:42;;;;;;;40.72;26.52;;;;;;;22.58;40.80;100537.34;5035130;28;20116;-72
2020/12/18 09:41:16;;;;;;;45.17;26.17;;;;;;;22.57;41.03;100527.69;5024680;28;20042;-74
2020/12/18 09:43:42;;;;;;;40.35;24.77;;;;;;;22.59;41.00;100525.88;5014979;28;20133;-73
2020/12/18 09:46:11;;;;;;;37.75;23.42;;;;;;;22.58;40.98;100521.47;5003012;28;20117;-75
2020/12/18 09:48:47;;;;;;;34.65;22.13;;;;;;;22.54;41.30;100525.13;4996592;28;20081;-76
2020/12/18 09:51:13;;;;;;;35.40;21.35;;;;;;;22.58;41.02;100528.56;5014397;28;20145;-75
2020/12/18 09:53:38;;;;;;;31.88;19.27;;;;;;;22.58;41.16;100525.91;5013783;28;20041;-74
2020/12/18 09:56:07;;;;;;;30.95;18.48;;;;;;;22.57;41.19;100527.69;5014326;28;20450;-75
2020/12/18 09:58:32;;;;;;;30.30;19.00;;;;;;;22.57;41.13;100525.06;5015046;28;20537;-72
2020/12/18 10:00:58;;;;;;;29.05;17.10;;;;;;;22.59;41.19;100525.88;5014813;28;20069;-74
2020/12/18 10:03:23;;;;;;;26.70;16.10;;;;;;;22.58;41.25;100534.69;5014636;28;20105;-71
2020/12/18 10:05:49;;;;;;;28.15;16.63;;;;;;;22.61;41.28;100536.41;5014604;28;20026;-76
2020/12/18 10:08:15;;;;;;;23.45;14.63;;;;;;;22.62;41.20;100532.84;5014545;28;20064;-73
2020/12/18 10:10:40;;;;;;;23.40;15.38;;;;;;;22.66;41.15;100537.13;5014468;28;20066;-75
2020/12/18 10:13:06;;;;;;;20.98;13.38;;;;;;;22.69;41.28;100537.06;5014440;28;20050;-76
2020/12/18 10:15:32;;;;;;;19.73;12.80;;;;;;;22.73;41.16;100545.78;5014551;28;20041;-73
2020/12/18 10:17:58;;;;;;;21.73;13.45;;;;;;;22.74;41.20;100540.44;4996341;28;20036;-77
2020/12/18 10:20:23;;;;;;;21.60;12.73;;;;;;;22.75;41.30;100547.47;4994837;28;20035;-75
2020/12/18 10:22:49;;;;;;;21.38;12.95;;;;;;;22.75;41.30;100533.38;4998138;28;20125;-72
2020/12/18 10:25:14;;;;;;;17.02;10.50;;;;;;;22.76;41.35;100536.00;4994542;28;20402;-74
2020/12/18 10:27:41;;;;;;;16.27;10.68;;;;;;;22.76;41.34;100535.09;4993598;28;20042;-75
2020/12/18 10:30:07;;;;;;;16.27;10.07;;;;;;;22.76;41.35;100532.47;4994268;28;20038;-73
2020/12/18 10:32:35;;;;;;;19.23;10.18;;;;;;;22.76;41.17;100532.47;5007156;28;20042;-72
2020/12/18 10:35:01;;;;;;;14.30;10.15;;;;;;;22.74;41.30;100536.94;5014075;28;20526;-76
2020/12/18 10:37:27;;;;;;;15.10;9.85;;;;;;;22.73;41.46;100529.94;5014187;28;20029;-73
2020/12/18 10:39:54;;;;;;;13.18;8.07;;;;;;;22.71;41.38;100535.25;5008866;28;20038;-77
2020/12/18 10:42:20;;;;;;;12.40;6.63;;;;;;;22.68;40.63;100527.41;5012560;28;20049;-73
2020/12/18 10:44:46;;;;;;;8.50;4.50;;;;;;;22.61;40.26;100525.84;4996383;28;20499;-78
2020/12/18 10:47:11;;;;;;;15.10;6.18;;;;;;;22.49;40.21;100522.63;5013544;28;20049;-75
2020/12/18 10:49:36;;;;;;;6.93;3.45;;;;;;;22.38;40.01;100526.41;5006398;28;20495;-76
2020/12/18 10:52:02;;;;;;;5.70;2.40;;;;;;;22.30;39.57;100524.81;4994344;28;20586;-73
2020/12/18 10:54:31;;;;;;;5.03;2.17;;;;;;;22.21;39.61;100528.53;4993919;28;20042;-76
2020/12/18 10:56:56;;;;;;;12.32;2.65;;;;;;;22.14;39.24;100524.34;4994391;28;20859;-75
2020/12/18 10:59:23;;;;;;;11.82;4.45;;;;;;;22.09;38.97;100515.66;4993171;28;20046;-76
2020/12/18 11:01:56;;;;;;;13.60;4.82;;;;;;;22.03;39.65;100515.81;4993644;28;20039;-77
2020/12/18 11:04:22;;;;;;;15.95;4.57;;;;;;;22.03;39.17;100513.19;4994247;28;20451;-77
2020/12/18 11:06:48;;;;;;;15.32;4.68;;;;;;;21.98;38.59;100508.00;4991992;28;20084;-78
2020/12/18 11:09:14;;;;;;;13.77;3.70;;;;;;;21.96;38.79;100503.66;4992504;28;20134;-79
2020/12/18 11:11:40;;;;;;;11.00;2.80;;;;;;;21.93;38.89;100501.97;4992956;28;20034;-75
2020/12/18 11:14:06;;;;;;;11.70;2.20;;;;;;;21.89;38.88;100495.03;4993801;28;20509;-74
2020/12/18 11:16:32;;;;;;;5.25;1.75;;;;;;;21.83;38.96;100485.50;4994582;28;20467;-73
2020/12/18 11:19:01;;;;;;;6.03;2.47;;;;;;;21.76;39.20;100481.25;4993901;28;20069;-73
2020/12/18 11:21:30;;;;;;;8.90;2.03;;;;;;;21.79;38.92;100481.19;4992702;28;20034;-74